Time;durP1;ratioP1;P1;durP2;ratioP2;P2;SDS_P1;SDS_P2;PMS_P1;PMS_P2;Temp;Humidity;BMP_temperature;BMP_pressure;BME280_temperature;BME280_humidity;BME280_pressure;Samples;Min_cycle;Max_cycle;Signal;HPM_P1;HPM_P2
2022/08/20 00:01:17;;;;;;;;;;;;;;;;;;5056259;28;19925;-90
2022/08/20 00:03:43;;;;;;;;;;;;;;;;;;5055816;28;19999;-91
2022/08/20 00:06:13;;;;;;;;;;;;;;;;;;5038101;28;20294;-90
2022/08/20 00:08:39;;;;;;;;;;;;;;;;;;5038159;28;19917;-91
2022/08/20 00:11:06;;;;;;;;;;;;;;;;;;5037589;28;19920;-90
2022/08/20 00:13:33;;;;;;;;;;;;;;;;;;5037294;28;19924;-89
2022/08/20 00:15:59;;;;;;;;;;;;;;;;;;5056644;28;19970;-91
2022/08/20 00:18:24;;;;;;;;;;;;;;;;;;5038054;28;19920;-89
2022/08/20 00:20:51;;;;;;;;;;;;;;;;;;5056654;28;19917;-91
2022/08/20 00:23:17;;;;;;;;;;;;;;;;;;5040509;28;19927;-90
2022/08/20 00:25:42;;;;;;;;;;;;;;;;;;5038974;28;20364;-91
2022/08/20 00:28:08;;;;;;;;;;;;;;;;;;5055944;28;19964;-90
2022/08/20 00:30:34;;;;;;;;;;;;;;;;;;5037730;28;19987;-92
2022/08/20 00:33:02;;;;;;;;;;;;;;;;;;5055283;28;20435;-92
2022/08/20 00:35:29;;;;;;;;;;;;;;;;;;5055515;28;20435;-91
2022/08/20 00:37:54;;;;;;;;;;;;;;;;;;5055813;28;20011;-92
2022/08/20 00:40:22;;;;;;;;;;;;;;;;;;5037777;28;20015;-91
2022/08/20 00:42:50;;;;;;;;;;;;;;;;;;5037575;28;20299;-92
2022/08/20 00:45:17;;;;;;;;;;;;;;;;;;5055323;28;19977;-93
2022/08/20 00:47:43;;;;;;;;;;;;;;;;;;5056914;28;19917;-91
2022/08/20 00:50:10;;;;;;;;;;;;;;;;;;5037742;28;19923;-90
2022/08/20 00:52:36;;;;;;;;;;;;;;;;;;5036920;28;20508;-92
2022/08/20 00:55:03;;;;;;;;;;;;;;;;;;5037617;28;19924;-91
2022/08/20 00:57:28;;;;;;;;;;;;;;;;;;5037396;28;20020;-91
2022/08/20 00:59:55;;;;;;;;;;;;;;;;;;5037586;28;19956;-92
2022/08/20 01:02:21;;;;;;;;;;;;;;;;;;5054719;28;19917;-91
2022/08/20 01:04:53;;;;;;;;;;;;;;;;;;5037080;28;19939;-90
2022/08/20 01:07:19;;;;;;;;;;;;;;;;;;5037083;28;19970;-91
2022/08/20 01:09:45;;;;;;;;;;;;;;;;;;5037371;28;19924;-91
2022/08/20 01:12:12;;;;;;;;;;;;;;;;;;5036404;28;19917;-92
2022/08/20 01:17:06;;;;;;;;;;;;;;;;;;5055261;28;20494;-92
2022/08/20 01:19:59;;;;;;;;;;;;;;;;;;5036854;28;19917;-91
2022/08/20 01:25:41;;;;;;;;;;;;;;;;;;5011982;28;20024;-91
2022/08/20 01:28:07;;;;;;;;;;;;;;;;;;5012695;28;19918;-91
2022/08/20 01:30:33;;;;;;;;;;;;;;;;;;5017232;28;19912;-92
2022/08/20 01:32:58;;;;;;;;;;;;;;;;;;5036052;28;20372;-92
2022/08/20 01:35:24;;;;;;;;;;;;;;;;;;5054435;28;19924;-91
2022/08/20 01:37:50;;;;;;;;;;;;;;;;;;5036238;28;20341;-90
2022/08/20 01:40:20;;;;;;;;;;;;;;;;;;5036512;28;19947;-92
2022/08/20 01:42:46;;;;;;;;;;;;;;;;;;5053865;28;19970;-91
2022/08/20 01:45:11;;;;;;;;;;;;;;;;;;5037458;28;19921;-92
2022/08/20 01:47:37;;;;;;;;;;;;;;;;;;5036330;28;19992;-92
2022/08/20 01:50:07;;;;;;;;;;;;;;;;;;5036850;28;20388;-92
2022/08/20 01:52:38;;;;;;;;;;;;;;;;;;5036629;28;19917;-92
2022/08/20 01:55:04;;;;;;;;;;;;;;;;;;5055298;28;19916;-90
2022/08/20 01:57:29;;;;;;;;;;;;;;;;;;5054057;28;19920;-92
2022/08/20 01:59:55;;;;;;;;;;;;;;;;;;5036150;28;19974;-93
2022/08/20 02:02:21;;;;;;;;;;;;;;;;;;5035727;28;19917;-91
2022/08/20 02:04:47;;;;;;;;;;;;;;;;;;5035780;28;19920;-92
2022/08/20 02:07:18;;;;;;;;;;;;;;;;;;5036081;28;19916;-91
2022/08/20 02:09:45;;;;;;;;;;;;;;;;;;5041765;28;20050;-91
2022/08/20 02:12:13;;;;;;;;;;;;;;;;;;5054383;28;19916;-91
2022/08/20 02:14:43;;;;;;;;;;;;;;;;;;5051681;28;19917;-92
2022/08/20 02:17:09;;;;;;;;;;;;;;;;;;5036593;28;19948;-91
2022/08/20 02:19:37;;;;;;;;;;;;;;;;;;5034767;28;19917;-92
2022/08/20 02:22:07;;;;;;;;;;;;;;;;;;5055770;28;19956;-92
2022/08/20 02:24:34;;;;;;;;;;;;;;;;;;5047217;28;19920;-91
2022/08/20 02:26:59;;;;;;;;;;;;;;;;;;5048155;28;19990;-92
2022/08/20 02:29:25;;;;;;;;;;;;;;;;;;5049366;28;19924;-91
2022/08/20 02:31:50;;;;;;;;;;;;;;;;;;5061791;28;19917;-92
2022/08/20 02:34:16;;;;;;;;;;;;;;;;;;5060775;28;19916;-93
2022/08/20 02:36:42;;;;;;;;;;;;;;;;;;5075227;28;20441;-91
2022/08/20 02:39:09;;;;;;;;;;;;;;;;;;5056225;28;20378;-92
2022/08/20 02:41:35;;;;;;;;;;;;;;;;;;5056343;28;19920;-92
2022/08/20 02:44:00;;;;;;;;;;;;;;;;;;5055268;28;19924;-92
2022/08/20 02:46:28;;;;;;;;;;;;;;;;;;5038361;28;22143;-93
2022/08/20 02:48:54;;;;;;;;;;;;;;;;;;5073331;28;19916;-90
2022/08/20 02:51:19;;;;;;;;;;;;;;;;;;5073078;28;19917;-93
2022/08/20 02:53:45;;;;;;;;;;;;;;;;;;5054832;28;20376;-91
2022/08/20 02:56:11;;;;;;;;;;;;;;;;;;5055222;28;19920;-93
2022/08/20 02:58:37;;;;;;;;;;;;;;;;;;5054997;28;19964;-90
2022/08/20 03:01:04;;;;;;;;;;;;;;;;;;5073270;28;19962;-92
2022/08/20 03:03:30;;;;;;;;;;;;;;;;;;5054806;28;20319;-93
2022/08/20 03:05:56;;;;;;;;;;;;;;;;;;5054905;28;19974;-92
2022/08/20 03:08:23;;;;;;;;;;;;;;;;;;5055123;28;19920;-93
2022/08/20 03:10:49;;;;;;;;;;;;;;;;;;5055096;28;19928;-94
2022/08/20 03:13:15;;;;;;;;;;;;;;;;;;5054470;28;19917;-91
2022/08/20 03:15:42;;;;;;;;;;;;;;;;;;5073001;28;19923;-91
2022/08/20 03:18:07;;;;;;;;;;;;;;;;;;5054939;28;19920;-92
2022/08/20 03:20:33;;;;;;;;;;;;;;;;;;5073066;28;19917;-91
2022/08/20 03:22:59;;;;;;;;;;;;;;;;;;5072729;28;19917;-91
2022/08/20 03:25:24;;;;;;;;;;;;;;;;;;5072555;28;20322;-92
2022/08/20 03:27:50;;;;;;;;;;;;;;;;;;5054770;28;20003;-92
2022/08/20 03:30:15;;;;;;;;;;;;;;;;;;5072819;28;19912;-93
2022/08/20 03:32:42;;;;;;;;;;;;;;;;;;5072221;28;19923;-90
2022/08/20 03:35:09;;;;;;;;;;;;;;;;;;5060649;28;19963;-92
2022/08/20 03:37:35;;;;;;;;;;;;;;;;;;5052742;28;19913;-92
2022/08/20 03:40:02;;;;;;;;;;;;;;;;;;5035077;28;20372;-91
2022/08/20 03:42:27;;;;;;;;;;;;;;;;;;5034500;28;19913;-91
2022/08/20 03:44:52;;;;;;;;;;;;;;;;;;5034688;28;20482;-92
2022/08/20 03:47:18;;;;;;;;;;;;;;;;;;5053412;28;20344;-92
2022/08/20 03:49:44;;;;;;;;;;;;;;;;;;5038516;28;19928;-92
2022/08/20 03:52:09;;;;;;;;;;;;;;;;;;5055943;28;20384;-94
2022/08/20 03:54:34;;;;;;;;;;;;;;;;;;5038363;28;19920;-91
2022/08/20 03:57:01;;;;;;;;;;;;;;;;;;5038334;28;19963;-92
2022/08/20 03:59:27;;;;;;;;;;;;;;;;;;5056045;28;19928;-92
2022/08/20 04:01:53;;;;;;;;;;;;;;;;;;5055981;28;20330;-91
2022/08/20 04:07:13;;;;;;;;;;;;;;;;;;5082958;22;19985;-92
2022/08/20 04:09:38;;;;;;;;;;;;;;;;;;5058575;28;20315;-92
2022/08/20 04:12:05;;;;;;;;;;;;;;;;;;5075354;28;19917;-91
2022/08/20 04:14:31;;;;;;;;;;;;;;;;;;5057861;28;19916;-91
2022/08/20 04:16:57;;;;;;;;;;;;;;;;;;5074757;28;19920;-91
2022/08/20 04:19:22;;;;;;;;;;;;;;;;;;5058229;28;20397;-92
2022/08/20 04:21:49;;;;;;;;;;;;;;;;;;5058013;28;19917;-91
2022/08/20 04:24:14;;;;;;;;;;;;;;;;;;5075496;28;19916;-91
2022/08/20 04:26:40;;;;;;;;;;;;;;;;;;5057375;28;20363;-91
2022/08/20 04:29:05;;;;;;;;;;;;;;;;;;5057669;28;19983;-92
2022/08/20 04:31:34;;;;;;;;;;;;;;;;;;5075404;28;20386;-91
2022/08/20 04:34:03;;;;;;;;;;;;;;;;;;5075141;28;20391;-91
2022/08/20 04:36:28;;;;;;;;;;;;;;;;;;5057376;28;20007;-91
2022/08/20 04:38:54;;;;;;;;;;;;;;;;;;5057472;28;20437;-92
2022/08/20 04:41:20;;;;;;;;;;;;;;;;;;5074267;28;19912;-92
2022/08/20 04:43:45;;;;;;;;;;;;;;;;;;5057224;28;19923;-91
2022/08/20 04:46:12;;;;;;;;;;;;;;;;;;5057191;28;19970;-91
2022/08/20 04:48:38;;;;;;;;;;;;;;;;;;5057617;28;20325;-91
2022/08/20 04:51:05;;;;;;;;;;;;;;;;;;5057178;28;20326;-91
2022/08/20 04:53:30;;;;;;;;;;;;;;;;;;5056612;28;19924;-91
2022/08/20 04:55:58;;;;;;;;;;;;;;;;;;5057365;28;19923;-91
2022/08/20 04:58:29;;;;;;;;;;;;;;;;;;5057021;28;19956;-91
2022/08/20 05:00:59;;;;;;;;;;;;;;;;;;5075159;28;19920;-92
2022/08/20 05:03:24;;;;;;;;;;;;;;;;;;5074804;28;19943;-92
2022/08/20 05:05:50;;;;;;;;;;;;;;;;;;5068041;28;20376;-91
2022/08/20 05:08:17;;;;;;;;;;;;;;;;;;5065343;28;20013;-92
2022/08/20 05:10:42;;;;;;;;;;;;;;;;;;5024449;28;19920;-92
2022/08/20 05:13:08;;;;;;;;;;;;;;;;;;5022095;28;19921;-92
2022/08/20 05:15:39;;;;;;;;;;;;;;;;;;5051299;28;19962;-93
2022/08/20 05:18:06;;;;;;;;;;;;;;;;;;5058319;28;19938;-92
2022/08/20 05:20:38;;;;;;;;;;;;;;;;;;5059704;28;20011;-92
2022/08/20 05:23:05;;;;;;;;;;;;;;;;;;5022376;28;19917;-94
2022/08/20 05:25:31;;;;;;;;;;;;;;;;;;5036507;28;20067;-92
2022/08/20 05:28:04;;;;;;;;;;;;;;;;;;5033965;28;20015;-93
2022/08/20 05:30:32;;;;;;;;;;;;;;;;;;5033614;28;19921;-94
2022/08/20 05:33:02;;;;;;;;;;;;;;;;;;5035973;28;19924;-92
2022/08/20 05:35:28;;;;;;;;;;;;;;;;;;5054481;28;20364;-92
2022/08/20 05:37:53;;;;;;;;;;;;;;;;;;5036748;28;19917;-91
2022/08/20 05:40:21;;;;;;;;;;;;;;;;;;5053964;28;19932;-93
2022/08/20 05:42:48;;;;;;;;;;;;;;;;;;5035736;28;19971;-93
2022/08/20 05:45:18;;;;;;;;;;;;;;;;;;5036380;28;19971;-92
2022/08/20 05:47:44;;;;;;;;;;;;;;;;;;5036224;28;20331;-93
2022/08/20 05:50:10;;;;;;;;;;;;;;;;;;5054132;28;19924;-92
2022/08/20 05:52:36;;;;;;;;;;;;;;;;;;5035553;28;19924;-91
2022/08/20 05:55:03;;;;;;;;;;;;;;;;;;5035985;28;19916;-91
2022/08/20 05:57:28;;;;;;;;;;;;;;;;;;5035862;28;19920;-92
2022/08/20 05:59:54;;;;;;;;;;;;;;;;;;5035127;28;19924;-91
2022/08/20 06:05:03;;;;;;;;;;;;;;;;;;5044583;28;19994;-95
2022/08/20 06:07:29;;;;;;;;;;;;;;;;;;5051760;28;19928;-94
2022/08/20 06:09:54;;;;;;;;;;;;;;;;;;5053238;28;19967;-94
2022/08/20 06:12:20;;;;;;;;;;;;;;;;;;5035619;28;19924;-94
2022/08/20 06:14:46;;;;;;;;;;;;;;;;;;5046993;28;19922;-92
2022/08/20 06:17:16;;;;;;;;;;;;;;;;;;5029427;28;19928;-92
2022/08/20 06:19:42;;;;;;;;;;;;;;;;;;5054070;28;19959;-95
2022/08/20 06:22:08;;;;;;;;;;;;;;;;;;5054294;28;19916;-93
2022/08/20 06:25:28;;;;;;;;;;;;;;;;;;5075353;27;19966;-93
2022/08/20 06:27:53;;;;;;;;;;;;;;;;;;5056451;28;20372;-94
2022/08/20 06:30:19;;;;;;;;;;;;;;;;;;5057475;28;19939;-93
2022/08/20 06:32:44;;;;;;;;;;;;;;;;;;5058872;28;19921;-93
2022/08/20 06:35:10;;;;;;;;;;;;;;;;;;5049445;28;20035;-93
2022/08/20 06:37:37;;;;;;;;;;;;;;;;;;5068662;28;19995;-94
2022/08/20 06:40:10;;;;;;;;;;;;;;;;;;5056617;28;20388;-93
2022/08/20 06:42:38;;;;;;;;;;;;;;;;;;5069122;28;19920;-92
2022/08/20 06:45:04;;;;;;;;;;;;;;;;;;5069264;28;19917;-93
2022/08/20 06:47:30;;;;;;;;;;;;;;;;;;5069474;28;20314;-94
2022/08/20 06:49:56;;;;;;;;;;;;;;;;;;5069386;28;19916;-93
2022/08/20 06:52:22;;;;;;;;;;;;;;;;;;5069909;28;20287;-93
2022/08/20 06:54:47;;;;;;;;;;;;;;;;;;5070614;28;20046;-94
2022/08/20 06:57:13;;;;;;;;;;;;;;;;;;5068734;28;19985;-93
2022/08/20 06:59:38;;;;;;;;;;;;;;;;;;5070225;28;19948;-94
2022/08/20 07:02:04;;;;;;;;;;;;;;;;;;5069724;28;19916;-94
2022/08/20 07:04:30;;;;;;;;;;;;;;;;;;5068174;28;19921;-92
2022/08/20 07:06:56;;;;;;;;;;;;;;;;;;5068734;28;19916;-93
2022/08/20 07:09:23;;;;;;;;;;;;;;;;;;5064813;28;19975;-92
2022/08/20 07:11:49;;;;;;;;;;;;;;;;;;5067586;28;20363;-93
2022/08/20 07:14:15;;;;;;;;;;;;;;;;;;5068062;28;19917;-95
2022/08/20 07:16:41;;;;;;;;;;;;;;;;;;5068778;28;19917;-93
2022/08/20 07:19:07;;;;;;;;;;;;;;;;;;5069105;28;19924;-94
2022/08/20 07:21:33;;;;;;;;;;;;;;;;;;5069971;28;19928;-93
2022/08/20 07:23:58;;;;;;;;;;;;;;;;;;5071195;28;19976;-93
2022/08/20 07:26:23;;;;;;;;;;;;;;;;;;5069178;28;19931;-95
2022/08/20 07:28:49;;;;;;;;;;;;;;;;;;5069646;28;19966;-94
2022/08/20 07:33:58;;;;;;;;;;;;;;;;;;5068959;28;19975;-92
2022/08/20 07:36:24;;;;;;;;;;;;;;;;;;5057839;28;19960;-92
2022/08/20 07:38:51;;;;;;;;;;;;;;;;;;5056721;28;19927;-92
2022/08/20 07:41:17;;;;;;;;;;;;;;;;;;5056911;28;20373;-89
2022/08/20 07:43:47;;;;;;;;;;;;;;;;;;5059041;28;20296;-90
2022/08/20 07:46:14;;;;;;;;;;;;;;;;;;5039464;28;19922;-89
2022/08/20 07:48:51;;;;;;;;;;;;;;;;;;5042859;28;19930;-90
2022/08/20 07:51:18;;;;;;;;;;;;;;;;;;5058141;28;19917;-90
2022/08/20 07:53:50;;;;;;;;;;;;;;;;;;5063353;28;19917;-89
2022/08/20 07:56:18;;;;;;;;;;;;;;;;;;5069541;28;19924;-90
2022/08/20 07:58:48;;;;;;;;;;;;;;;;;;5074520;28;19927;-91
2022/08/20 08:01:14;;;;;;;;;;;;;;;;;;5078631;28;19923;-91
2022/08/20 08:03:39;;;;;;;;;;;;;;;;;;5083549;28;19920;-91
2022/08/20 08:06:06;;;;;;;;;;;;;;;;;;5072161;28;19917;-92
2022/08/20 08:08:33;;;;;;;;;;;;;;;;;;5061907;28;19917;-93
2022/08/20 08:11:00;;;;;;;;;;;;;;;;;;5042890;28;19960;-90
2022/08/20 08:13:26;;;;;;;;;;;;;;;;;;5049131;28;19923;-92
2022/08/20 08:15:58;;;;;;;;;;;;;;;;;;5063332;28;19917;-91
2022/08/20 08:18:26;;;;;;;;;;;;;;;;;;5062103;28;19921;-91
2022/08/20 08:20:54;;;;;;;;;;;;;;;;;;5057742;22;20014;-90
2022/08/20 08:23:20;;;;;;;;;;;;;;;;;;5001660;28;19921;-92
2022/08/20 08:25:47;;;;;;;;;;;;;;;;;;5003542;28;19973;-91
2022/08/20 08:28:13;;;;;;;;;;;;;;;;;;5003057;28;20002;-91
2022/08/20 08:30:39;;;;;;;;;;;;;;;;;;5005216;28;20385;-93
2022/08/20 08:33:27;;;;;;;;;;;;;;;;;;4999995;28;19926;-92
2022/08/20 08:35:54;;;;;;;;;;;;;;;;;;5002735;28;19918;-90
2022/08/20 08:38:21;;;;;;;;;;;;;;;;;;5004236;28;19924;-92
2022/08/20 08:40:50;;;;;;;;;;;;;;;;;;5001162;28;19925;-91
2022/08/20 08:43:19;;;;;;;;;;;;;;;;;;5002046;28;19960;-90
2022/08/20 08:45:47;;;;;;;;;;;;;;;;;;5004346;28;19967;-91
2022/08/20 08:48:13;;;;;;;;;;;;;;;;;;4999946;28;19925;-90
2022/08/20 08:50:41;;;;;;;;;;;;;;;;;;5004486;28;19918;-90
2022/08/20 08:53:09;;;;;;;;;;;;;;;;;;5004368;28;19925;-90
2022/08/20 08:55:35;;;;;;;;;;;;;;;;;;5001988;28;19924;-90
2022/08/20 08:58:02;;;;;;;;;;;;;;;;;;5003621;28;19961;-90
2022/08/20 09:00:28;;;;;;;;;;;;;;;;;;5003208;28;19945;-89
2022/08/20 09:03:02;;;;;;;;;;;;;;;;;;5006344;28;19933;-90
2022/08/20 09:05:50;;;;;;;;;;;;;;;;;;5008774;28;19917;-89
2022/08/20 09:08:23;;;;;;;;;;;;;;;;;;5007857;28;20296;-88
2022/08/20 09:10:48;;;;;;;;;;;;;;;;;;5005115;28;19925;-88
2022/08/20 09:13:17;;;;;;;;;;;;;;;;;;5004110;28;19921;-90
2022/08/20 09:15:42;;;;;;;;;;;;;;;;;;5001096;28;20385;-89
2022/08/20 09:18:08;;;;;;;;;;;;;;;;;;4991449;28;20019;-88
2022/08/20 09:20:35;;;;;;;;;;;;;;;;;;4987425;28;20271;-90
2022/08/20 09:23:00;;;;;;;;;;;;;;;;;;4997155;28;19942;-90
2022/08/20 09:25:26;;;;;;;;;;;;;;;;;;4990593;28;19922;-89
2022/08/20 09:27:51;;;;;;;;;;;;;;;;;;4997937;28;19926;-88
2022/08/20 09:30:16;;;;;;;;;;;;;;;;;;4999131;28;19960;-89
2022/08/20 09:32:42;;;;;;;;;;;;;;;;;;5000230;28;19940;-89
2022/08/20 09:35:08;;;;;;;;;;;;;;;;;;4998055;28;19929;-91
2022/08/20 09:37:33;;;;;;;;;;;;;;;;;;4993147;28;19917;-91
2022/08/20 09:39:59;;;;;;;;;;;;;;;;;;4998166;28;19945;-92
2022/08/20 09:42:32;;;;;;;;;;;;;;;;;;4996955;28;19929;-89
2022/08/20 09:44:58;;;;;;;;;;;;;;;;;;5005096;28;19921;-91
2022/08/20 09:47:36;;;;;;;;;;;;;;;;;;4987895;28;19928;-94
2022/08/20 09:50:03;;;;;;;;;;;;;;;;;;4987896;28;19924;-94
2022/08/20 09:52:38;;;;;;;;;;;;;;;;;;4987772;28;19950;-90
2022/08/20 09:55:15;;;;;;;;;;;;;;;;;;4988745;28;19918;-91
2022/08/20 09:57:42;;;;;;;;;;;;;;;;;;4999996;28;19917;-91
2022/08/20 10:00:08;;;;;;;;;;;;;;;;;;5002907;28;19953;-90
2022/08/20 10:02:35;;;;;;;;;;;;;;;;;;4989894;28;19957;-91
2022/08/20 10:05:01;;;;;;;;;;;;;;;;;;4973444;28;19960;-90
2022/08/20 10:07:26;;;;;;;;;;;;;;;;;;4988257;28;19918;-90
2022/08/20 10:09:55;;;;;;;;;;;;;;;;;;5006349;28;19945;-92
2022/08/20 10:12:20;;;;;;;;;;;;;;;;;;4989553;28;19925;-90
2022/08/20 10:14:48;;;;;;;;;;;;;;;;;;4988395;28;20285;-92
2022/08/20 10:17:18;;;;;;;;;;;;;;;;;;5002511;28;19963;-92
2022/08/20 10:19:44;;;;;;;;;;;;;;;;;;4982737;28;19918;-92
2022/08/20 10:22:09;;;;;;;;;;;;;;;;;;4985940;28;19937;-93
2022/08/20 10:24:35;;;;;;;;;;;;;;;;;;4985515;28;19922;-91
2022/08/20 10:27:04;;;;;;;;;;;;;;;;;;4981491;28;19980;-92
2022/08/20 10:29:30;;;;;;;;;;;;;;;;;;4978636;28;19917;-93
2022/08/20 10:31:56;;;;;;;;;;;;;;;;;;4984180;28;19922;-93
2022/08/20 10:34:22;;;;;;;;;;;;;;;;;;4976698;28;20380;-92
2022/08/20 10:36:47;;;;;;;;;;;;;;;;;;4976542;28;19969;-94
2022/08/20 10:39:19;;;;;;;;;;;;;;;;;;4977033;28;19918;-93
2022/08/20 10:41:44;;;;;;;;;;;;;;;;;;4981302;28;20032;-92
2022/08/20 10:44:10;;;;;;;;;;;;;;;;;;4979901;28;19960;-93
2022/08/20 10:46:38;;;;;;;;;;;;;;;;;;5000290;28;19969;-91
2022/08/20 10:49:04;;;;;;;;;;;;;;;;;;4998868;28;19917;-92
2022/08/20 10:51:29;;;;;;;;;;;;;;;;;;5021032;28;19925;-92
2022/08/20 10:53:56;;;;;;;;;;;;;;;;;;5003808;28;20016;-92
2022/08/20 10:56:22;;;;;;;;;;;;;;;;;;5013677;28;19921;-91
2022/08/20 10:58:57;;;;;;;;;;;;;;;;;;5003122;28;19985;-91
2022/08/20 11:01:22;;;;;;;;;;;;;;;;;;4996331;28;19923;-91
2022/08/20 11:03:48;;;;;;;;;;;;;;;;;;4955657;28;20397;-92
2022/08/20 11:06:18;;;;;;;;;;;;;;;;;;4974918;28;19941;-92
2022/08/20 11:08:44;;;;;;;;;;;;;;;;;;4965145;28;19914;-92
2022/08/20 11:11:09;;;;;;;;;;;;;;;;;;4966875;28;20021;-91
2022/08/20 11:13:41;;;;;;;;;;;;;;;;;;4990543;28;19921;-90
2022/08/20 11:16:06;;;;;;;;;;;;;;;;;;4987958;28;19928;-91
2022/08/20 11:18:33;;;;;;;;;;;;;;;;;;5006202;28;19918;-91
2022/08/20 11:21:00;;;;;;;;;;;;;;;;;;4987748;28;19921;-90
2022/08/20 11:23:26;;;;;;;;;;;;;;;;;;5002720;28;19947;-93
2022/08/20 11:25:52;;;;;;;;;;;;;;;;;;4985134;28;19921;-91
2022/08/20 11:28:18;;;;;;;;;;;;;;;;;;4984359;28;20016;-92
2022/08/20 11:30:45;;;;;;;;;;;;;;;;;;4987503;28;19918;-91
2022/08/20 11:33:10;;;;;;;;;;;;;;;;;;5003866;28;19977;-92
2022/08/20 11:35:36;;;;;;;;;;;;;;;;;;4985265;28;19968;-90
2022/08/20 11:38:02;;;;;;;;;;;;;;;;;;4998706;28;19921;-91
2022/08/20 11:40:29;;;;;;;;;;;;;;;;;;5004323;28;19925;-92
2022/08/20 11:42:54;;;;;;;;;;;;;;;;;;4980732;28;19929;-91
2022/08/20 11:45:21;;;;;;;;;;;;;;;;;;4975800;28;19922;-91
2022/08/20 11:47:47;;;;;;;;;;;;;;;;;;4959943;28;20600;-92
2022/08/20 11:50:15;;;;;;;;;;;;;;;;;;4979794;28;19962;-92
2022/08/20 11:52:40;;;;;;;;;;;;;;;;;;4977855;28;19925;-90
2022/08/20 11:55:07;;;;;;;;;;;;;;;;;;4977246;28;20337;-92
2022/08/20 11:57:34;;;;;;;;;;;;;;;;;;4977228;28;19929;-92
2022/08/20 12:00:01;;;;;;;;;;;;;;;;;;4976823;28;20009;-91
2022/08/20 12:02:27;;;;;;;;;;;;;;;;;;4976842;28;19966;-90
2022/08/20 12:04:53;;;;;;;;;;;;;;;;;;4977268;28;19928;-92
2022/08/20 12:07:23;;;;;;;;;;;;;;;;;;4976663;28;19926;-93
2022/08/20 12:09:49;;;;;;;;;;;;;;;;;;4981577;28;19985;-90
2022/08/20 12:12:16;;;;;;;;;;;;;;;;;;4975772;28;19949;-91
2022/08/20 12:14:41;;;;;;;;;;;;;;;;;;4974332;28;19918;-91
2022/08/20 12:17:08;;;;;;;;;;;;;;;;;;4976345;28;20273;-91
2022/08/20 12:19:36;;;;;;;;;;;;;;;;;;4976206;28;19922;-92
2022/08/20 12:22:03;;;;;;;;;;;;;;;;;;4976127;28;19929;-92
2022/08/20 12:24:28;;;;;;;;;;;;;;;;;;4976147;28;20503;-93
2022/08/20 12:26:54;;;;;;;;;;;;;;;;;;4976548;28;20040;-91
2022/08/20 12:29:19;;;;;;;;;;;;;;;;;;4976710;28;19918;-93
2022/08/20 12:31:44;;;;;;;;;;;;;;;;;;4960565;28;19918;-92
2022/08/20 12:34:10;;;;;;;;;;;;;;;;;;4979717;28;19926;-91
2022/08/20 12:36:38;;;;;;;;;;;;;;;;;;5002430;28;19993;-92
2022/08/20 12:39:04;;;;;;;;;;;;;;;;;;4990763;28;19929;-89
2022/08/20 12:41:32;;;;;;;;;;;;;;;;;;5001812;28;19938;-90
2022/08/20 12:43:57;;;;;;;;;;;;;;;;;;5001353;28;20374;-90
2022/08/20 12:46:22;;;;;;;;;;;;;;;;;;4996895;28;20017;-92
2022/08/20 12:48:48;;;;;;;;;;;;;;;;;;4995333;28;19910;-89
2022/08/20 12:51:13;;;;;;;;;;;;;;;;;;5002557;28;19930;-91
2022/08/20 12:53:39;;;;;;;;;;;;;;;;;;4991098;28;19977;-91
2022/08/20 12:56:05;;;;;;;;;;;;;;;;;;5000616;28;19925;-90
2022/08/20 12:58:31;;;;;;;;;;;;;;;;;;5006926;28;19926;-90
2022/08/20 13:00:57;;;;;;;;;;;;;;;;;;5004205;28;19922;-91
2022/08/20 13:03:23;;;;;;;;;;;;;;;;;;4980542;28;19944;-93
2022/08/20 13:08:23;;;;;;;;;;;;;;;;;;5059206;23;19933;-90
2022/08/20 13:10:48;;;;;;;;;;;;;;;;;;5034591;28;20087;-91
2022/08/20 13:13:14;;;;;;;;;;;;;;;;;;5042663;28;19929;-90
2022/08/20 13:15:40;;;;;;;;;;;;;;;;;;5049640;28;19921;-90
2022/08/20 13:18:07;;;;;;;;;;;;;;;;;;5039291;28;19921;-90
2022/08/20 13:20:32;;;;;;;;;;;;;;;;;;5055965;28;19921;-91
2022/08/20 13:22:59;;;;;;;;;;;;;;;;;;5043769;28;19929;-91
2022/08/20 13:25:26;;;;;;;;;;;;;;;;;;5060799;28;19952;-90
2022/08/20 13:27:56;;;;;;;;;;;;;;;;;;5048564;28;20309;-91
2022/08/20 13:30:22;;;;;;;;;;;;;;;;;;5041323;28;19939;-91
2022/08/20 13:32:47;;;;;;;;;;;;;;;;;;5057287;28;19916;-90
2022/08/20 13:35:13;;;;;;;;;;;;;;;;;;5040790;28;19916;-90
2022/08/20 13:37:39;;;;;;;;;;;;;;;;;;5042211;28;20404;-91
2022/08/20 13:40:09;;;;;;;;;;;;;;;;;;5057898;28;19974;-91
2022/08/20 13:42:35;;;;;;;;;;;;;;;;;;5040415;28;19916;-91
2022/08/20 13:45:01;;;;;;;;;;;;;;;;;;5041418;28;20425;-91
2022/08/20 13:47:29;;;;;;;;;;;;;;;;;;5039855;28;19917;-91
2022/08/20 13:49:56;;;;;;;;;;;;;;;;;;5040135;28;19924;-90
2022/08/20 13:52:22;;;;;;;;;;;;;;;;;;5040304;28;19970;-91
2022/08/20 13:54:47;;;;;;;;;;;;;;;;;;5040320;28;19917;-90
2022/08/20 13:57:15;;;;;;;;;;;;;;;;;;5057812;28;19941;-91
2022/08/20 13:59:42;;;;;;;;;;;;;;;;;;5057716;28;19980;-91
2022/08/20 14:02:08;;;;;;;;;;;;;;;;;;5039535;28;19916;-90
2022/08/20 14:04:34;;;;;;;;;;;;;;;;;;5058656;28;19970;-91
2022/08/20 14:07:08;;;;;;;;;;;;;;;;;;5039528;28;20380;-91
2022/08/20 14:09:35;;;;;;;;;;;;;;;;;;5058017;28;19921;-91
2022/08/20 14:12:01;;;;;;;;;;;;;;;;;;5039385;28;19920;-90
2022/08/20 14:14:26;;;;;;;;;;;;;;;;;;5057197;28;20438;-91
2022/08/20 14:16:52;;;;;;;;;;;;;;;;;;5057915;28;19956;-91
2022/08/20 14:19:17;;;;;;;;;;;;;;;;;;5041143;28;19967;-91
2022/08/20 14:21:43;;;;;;;;;;;;;;;;;;5039233;28;19921;-91
2022/08/20 14:24:08;;;;;;;;;;;;;;;;;;5039290;28;19917;-90
2022/08/20 14:26:35;;;;;;;;;;;;;;;;;;5058610;28;19917;-91
2022/08/20 14:29:00;;;;;;;;;;;;;;;;;;5057449;28;19921;-91
2022/08/20 14:31:25;;;;;;;;;;;;;;;;;;5040786;28;19923;-91
2022/08/20 14:33:51;;;;;;;;;;;;;;;;;;5058234;28;19923;-91
2022/08/20 14:36:16;;;;;;;;;;;;;;;;;;5040965;28;19917;-90
2022/08/20 14:38:44;;;;;;;;;;;;;;;;;;5058722;28;19917;-90
2022/08/20 14:41:09;;;;;;;;;;;;;;;;;;5041123;28;19924;-90
2022/08/20 14:43:35;;;;;;;;;;;;;;;;;;5054853;28;19924;-95
2022/08/20 14:46:00;;;;;;;;;;;;;;;;;;5055922;28;19917;-90
2022/08/20 14:48:27;;;;;;;;;;;;;;;;;;5040256;28;20439;-91
2022/08/20 14:50:54;;;;;;;;;;;;;;;;;;5061183;28;19924;-92
2022/08/20 14:53:20;;;;;;;;;;;;;;;;;;5058104;28;19931;-91
2022/08/20 14:55:46;;;;;;;;;;;;;;;;;;5057691;28;20007;-92
2022/08/20 14:58:13;;;;;;;;;;;;;;;;;;5058244;28;19962;-90
2022/08/20 15:00:39;;;;;;;;;;;;;;;;;;5060058;28;19923;-91
2022/08/20 15:03:05;;;;;;;;;;;;;;;;;;5041231;28;20011;-92
2022/08/20 15:05:30;;;;;;;;;;;;;;;;;;5058398;28;19917;-91
2022/08/20 15:07:56;;;;;;;;;;;;;;;;;;5039398;28;19928;-93
2022/08/20 15:10:23;;;;;;;;;;;;;;;;;;5053261;28;19932;-90
2022/08/20 15:12:49;;;;;;;;;;;;;;;;;;5048603;28;20350;-91
2022/08/20 15:15:15;;;;;;;;;;;;;;;;;;5041954;28;20011;-91
2022/08/20 15:17:46;;;;;;;;;;;;;;;;;;5059585;28;19940;-91
2022/08/20 15:20:13;;;;;;;;;;;;;;;;;;5041514;28;19952;-90
2022/08/20 15:22:39;;;;;;;;;;;;;;;;;;5057602;28;19917;-89
2022/08/20 15:25:07;;;;;;;;;;;;;;;;;;5053101;28;19948;-90
2022/08/20 15:27:35;;;;;;;;;;;;;;;;;;5025283;28;19921;-91
2022/08/20 15:30:02;;;;;;;;;;;;;;;;;;5047561;28;19967;-91
2022/08/20 15:32:28;;;;;;;;;;;;;;;;;;5043844;28;19927;-93
2022/08/20 15:34:53;;;;;;;;;;;;;;;;;;5042886;28;20415;-93
2022/08/20 15:37:20;;;;;;;;;;;;;;;;;;5040997;28;19928;-92
2022/08/20 15:39:46;;;;;;;;;;;;;;;;;;5045953;28;19928;-90
2022/08/20 15:42:12;;;;;;;;;;;;;;;;;;5039134;28;19916;-92
2022/08/20 15:47:14;;;;;;;;;;;;;;;;;;5112515;22;19936;-92
2022/08/20 15:49:39;;;;;;;;;;;;;;;;;;5056044;28;19924;-90
2022/08/20 15:52:05;;;;;;;;;;;;;;;;;;5055594;28;20301;-89
2022/08/20 15:54:30;;;;;;;;;;;;;;;;;;5038229;28;19974;-90
2022/08/20 15:57:16;;;;;;;;;;;;;;;;;;5055167;28;19979;-91
2022/08/20 15:59:56;;;;;;;;;;;;;;;;;;5037610;28;19924;-89
2022/08/20 16:02:25;;;;;;;;;;;;;;;;;;5038903;28;19990;-91
2022/08/20 16:05:09;;;;;;;;;;;;;;;;;;5036424;28;19967;-91
2022/08/20 16:07:52;;;;;;;;;;;;;;;;;;5053791;28;19921;-91
2022/08/20 16:10:37;;;;;;;;;;;;;;;;;;5037213;28;19927;-90
2022/08/20 16:13:07;;;;;;;;;;;;;;;;;;5037318;28;20664;-92
2022/08/20 16:15:34;;;;;;;;;;;;;;;;;;5055094;28;19921;-91
2022/08/20 16:18:04;;;;;;;;;;;;;;;;;;5037225;28;19986;-93
2022/08/20 16:20:40;;;;;;;;;;;;;;;;;;5037481;28;19917;-92
2022/08/20 16:23:10;;;;;;;;;;;;;;;;;;5037142;28;19917;-91
2022/08/20 16:25:55;;;;;;;;;;;;;;;;;;5054811;28;19920;-92
2022/08/20 16:28:30;;;;;;;;;;;;;;;;;;5055051;28;19982;-93
2022/08/20 16:31:10;;;;;;;;;;;;;;;;;;5037104;28;19956;-91
2022/08/20 16:33:55;;;;;;;;;;;;;;;;;;5037195;28;19943;-92
2022/08/20 16:36:25;;;;;;;;;;;;;;;;;;5054808;28;20398;-92
2022/08/20 16:38:58;;;;;;;;;;;;;;;;;;5055120;28;20046;-93
2022/08/20 16:41:30;;;;;;;;;;;;;;;;;;5036978;28;19924;-94
2022/08/20 16:44:11;;;;;;;;;;;;;;;;;;5037237;28;19924;-91
2022/08/20 16:46:41;;;;;;;;;;;;;;;;;;5037673;28;19921;-92
2022/08/20 16:49:12;;;;;;;;;;;;;;;;;;5037404;28;19917;-92
2022/08/20 16:51:42;;;;;;;;;;;;;;;;;;5037434;28;20466;-93
2022/08/20 16:54:08;;;;;;;;;;;;;;;;;;5036937;28;19923;-94
2022/08/20 16:56:34;;;;;;;;;;;;;;;;;;5035782;28;19913;-93
2022/08/20 16:59:01;;;;;;;;;;;;;;;;;;5024467;28;19929;-91
2022/08/20 17:01:26;;;;;;;;;;;;;;;;;;5030325;28;19932;-92
2022/08/20 17:03:52;;;;;;;;;;;;;;;;;;5048178;28;19932;-92
2022/08/20 17:06:30;;;;;;;;;;;;;;;;;;5049822;28;19921;-92